createdAt,value
2022-11-30T00:00:55.395Z,7.34
2022-11-30T00:01:57.697Z,7.23
2022-11-30T00:03:00.227Z,7.05
2022-11-30T00:04:02.596Z,6.98
2022-11-30T00:05:05.203Z,6.87
2022-11-30T00:06:09.443Z,6.80
2022-11-30T00:07:11.701Z,6.81
2022-11-30T00:08:14.234Z,6.87
2022-11-30T00:09:16.421Z,6.92
2022-11-30T00:10:18.616Z,6.96
2022-11-30T00:11:22.421Z,7.04
2022-11-30T00:12:24.634Z,7.16
2022-11-30T00:13:26.930Z,7.26
2022-11-30T00:14:29.144Z,7.36
2022-11-30T00:15:32.962Z,7.42
2022-11-30T00:16:35.624Z,7.37
2022-11-30T00:17:37.923Z,7.34
2022-11-30T00:18:40.682Z,7.38
2022-11-30T00:19:43.446Z,7.37
2022-11-30T00:20:45.807Z,7.45
2022-11-30T00:21:48.141Z,7.55
2022-11-30T00:22:50.388Z,7.60
2022-11-30T00:23:52.591Z,7.61
2022-11-30T00:24:54.873Z,7.66
2022-11-30T00:26:00.769Z,7.62
2022-11-30T00:27:03.260Z,7.65
2022-11-30T00:28:05.487Z,7.64
2022-11-30T00:29:08.138Z,7.44
2022-11-30T00:30:10.840Z,7.25
2022-11-30T00:31:15.517Z,7.12
2022-11-30T00:32:17.974Z,6.99
2022-11-30T00:33:20.196Z,6.94
2022-11-30T00:34:22.387Z,6.94
2022-11-30T00:35:24.796Z,6.89
2022-11-30T00:36:27.102Z,7.02
2022-11-30T00:37:29.268Z,6.84
2022-11-30T00:38:32.623Z,6.75
2022-11-30T00:39:35.755Z,6.89
2022-11-30T00:40:38.064Z,6.77
2022-11-30T00:41:40.265Z,6.87
2022-11-30T00:42:42.447Z,6.87
2022-11-30T00:43:45.378Z,6.90
2022-11-30T00:44:47.807Z,6.99
2022-11-30T00:45:50.281Z,6.84
2022-11-30T00:46:52.503Z,6.78
2022-11-30T00:47:54.797Z,6.84
2022-11-30T00:48:57.030Z,6.94
2022-11-30T00:49:59.554Z,6.83
2022-11-30T00:51:01.793Z,6.89
2022-11-30T00:52:04.128Z,7.07
2022-11-30T00:53:06.580Z,7.02
2022-11-30T00:54:08.766Z,6.95
2022-11-30T00:55:10.972Z,7.14
2022-11-30T00:56:13.672Z,7.24
2022-11-30T00:57:15.918Z,7.35
2022-11-30T00:58:18.398Z,7.38
2022-11-30T00:59:20.638Z,7.47
2022-11-30T01:00:22.881Z,7.46
2022-11-30T01:01:25.151Z,7.55
2022-11-30T01:02:27.493Z,7.59
2022-11-30T01:03:29.710Z,7.56
2022-11-30T01:04:31.962Z,7.61
2022-11-30T01:05:34.964Z,7.66
2022-11-30T01:06:37.635Z,7.66
2022-11-30T01:07:39.890Z,7.66
2022-11-30T01:08:42.133Z,7.68
2022-11-30T01:09:44.374Z,7.48
2022-11-30T01:10:49.451Z,7.21
2022-11-30T01:11:51.678Z,7.09
2022-11-30T01:12:54.494Z,7.18
2022-11-30T01:13:58.265Z,7.16
2022-11-30T01:15:00.447Z,7.16
2022-11-30T01:16:09.667Z,7.18
2022-11-30T01:17:11.885Z,7.17
2022-11-30T01:18:14.375Z,7.02
2022-11-30T01:19:16.932Z,7.00
2022-11-30T01:20:19.084Z,7.06
2022-11-30T01:21:24.760Z,7.03
2022-11-30T01:22:26.982Z,7.06
2022-11-30T01:23:29.210Z,7.04
2022-11-30T01:24:31.427Z,6.84
2022-11-30T01:25:33.965Z,6.86
2022-11-30T01:26:36.224Z,6.88
2022-11-30T01:27:38.452Z,6.90
2022-11-30T01:28:41.100Z,7.02
2022-11-30T01:29:43.311Z,7.14
2022-11-30T01:30:45.541Z,7.22
2022-11-30T01:31:47.708Z,7.30
2022-11-30T01:32:49.949Z,7.29
2022-11-30T01:33:55.078Z,7.29
2022-11-30T01:34:57.310Z,7.35
2022-11-30T01:36:06.442Z,7.26
2022-11-30T01:37:08.609Z,7.23
2022-11-30T01:38:10.846Z,7.05
2022-11-30T01:39:13.139Z,6.93
2022-11-30T01:40:15.418Z,6.91
2022-11-30T01:41:21.920Z,6.90
2022-11-30T01:42:24.871Z,6.92
2022-11-30T01:43:41.520Z,7.05
2022-11-30T01:44:52.373Z,6.94
2022-11-30T01:45:54.564Z,7.03
2022-11-30T01:46:59.623Z,6.78
2022-11-30T01:48:01.919Z,6.73
2022-11-30T01:49:09.918Z,6.75
2022-11-30T01:50:35.876Z,6.86
2022-11-30T01:51:48.638Z,6.98
2022-11-30T01:52:54.406Z,6.82
2022-11-30T01:53:57.232Z,6.76
2022-11-30T01:55:08.126Z,6.80
2022-11-30T01:56:10.691Z,6.75
2022-11-30T01:57:21.250Z,6.92
2022-11-30T01:58:28.579Z,7.03
2022-11-30T01:59:31.283Z,6.92
2022-11-30T02:01:48.024Z,6.73
2022-11-30T02:03:00.222Z,6.80
2022-11-30T02:04:11.345Z,6.82
2022-11-30T02:05:15.975Z,6.71
2022-11-30T02:06:18.272Z,6.88
2022-11-30T02:07:20.889Z,6.81
2022-11-30T02:08:23.538Z,6.68
2022-11-30T02:09:27.551Z,6.66
2022-11-30T02:10:34.241Z,6.57
2022-11-30T02:11:36.612Z,6.59
2022-11-30T02:13:05.537Z,6.59
2022-11-30T02:14:36.156Z,6.58
2022-11-30T02:16:00.160Z,6.53
2022-11-30T02:17:27.986Z,6.62
2022-11-30T02:18:39.089Z,6.71
2022-11-30T02:20:04.699Z,6.66
2022-11-30T02:21:13.567Z,6.74
2022-11-30T02:22:49.630Z,6.67
2022-11-30T02:23:57.585Z,6.61
2022-11-30T02:25:13.324Z,6.64
2022-11-30T02:26:50.186Z,6.88
2022-11-30T02:27:58.376Z,7.06
2022-11-30T02:29:29.277Z,6.92
2022-11-30T02:30:35.879Z,6.88
2022-11-30T02:32:01.184Z,6.96
2022-11-30T02:33:09.402Z,6.97
2022-11-30T02:34:15.980Z,6.69
2022-11-30T02:35:21.799Z,6.92
2022-11-30T02:36:24.825Z,6.83
2022-11-30T02:37:28.503Z,6.76
2022-11-30T02:38:31.150Z,6.71
2022-11-30T02:39:33.353Z,6.63
2022-11-30T02:40:35.581Z,6.63
2022-11-30T02:41:41.126Z,6.70
2022-11-30T02:42:43.357Z,6.76
2022-11-30T02:43:45.577Z,6.82
2022-11-30T02:44:50.775Z,6.82
2022-11-30T02:46:14.948Z,6.67
2022-11-30T02:47:30.945Z,6.66
2022-11-30T02:48:44.487Z,6.74
2022-11-30T02:49:56.423Z,6.76
2022-11-30T02:51:02.241Z,6.70
2022-11-30T02:52:06.461Z,6.69
2022-11-30T02:53:10.169Z,6.64
2022-11-30T02:54:12.562Z,6.63
2022-11-30T02:55:18.156Z,6.63
2022-11-30T02:56:22.052Z,6.57
2022-11-30T02:57:24.434Z,6.56
2022-11-30T02:58:26.872Z,6.58
2022-11-30T02:59:29.465Z,6.59
2022-11-30T03:00:32.258Z,6.57
2022-11-30T03:01:34.535Z,6.66
2022-11-30T03:02:37.521Z,6.71
2022-11-30T03:03:39.820Z,6.65
2022-11-30T03:04:42.056Z,6.57
2022-11-30T03:05:44.376Z,6.51
2022-11-30T03:06:46.571Z,6.45
2022-11-30T03:07:48.809Z,6.51
2022-11-30T03:08:52.337Z,6.62
2022-11-30T03:09:54.551Z,6.59
2022-11-30T03:10:56.773Z,6.51
2022-11-30T03:11:58.967Z,6.49
2022-11-30T03:13:01.156Z,6.56
2022-11-30T03:14:03.878Z,6.50
2022-11-30T03:15:06.400Z,6.44
2022-11-30T03:16:11.336Z,6.45
2022-11-30T03:17:13.712Z,6.41
2022-11-30T03:18:15.878Z,6.55
2022-11-30T03:19:18.207Z,6.70
2022-11-30T03:20:20.396Z,6.74
2022-11-30T03:21:22.589Z,6.82
2022-11-30T03:22:25.124Z,6.76
2022-11-30T03:23:27.381Z,6.74
2022-11-30T03:24:29.853Z,6.60
2022-11-30T03:25:32.130Z,6.51
2022-11-30T03:26:34.431Z,6.54
2022-11-30T03:27:36.637Z,6.47
2022-11-30T03:28:38.848Z,6.58
2022-11-30T03:29:41.127Z,6.51
2022-11-30T03:30:49.440Z,6.38
2022-11-30T03:31:51.705Z,6.37
2022-11-30T03:32:53.932Z,6.36
2022-11-30T03:33:56.241Z,6.51
2022-11-30T03:34:58.470Z,6.49
2022-11-30T03:36:06.240Z,6.44
2022-11-30T03:37:08.608Z,6.50
2022-11-30T03:38:10.860Z,6.43
2022-11-30T03:39:13.104Z,6.34
2022-11-30T03:40:15.586Z,6.52
2022-11-30T03:41:17.938Z,6.40
2022-11-30T03:42:20.218Z,6.35
2022-11-30T03:43:22.450Z,6.32
2022-11-30T03:44:24.775Z,6.32
2022-11-30T03:45:27.004Z,6.28
2022-11-30T03:46:29.198Z,6.32
2022-11-30T03:47:31.674Z,6.41
2022-11-30T03:48:35.950Z,6.38
2022-11-30T03:49:38.149Z,6.33
2022-11-30T03:50:41.559Z,6.38
2022-11-30T03:51:43.815Z,6.38
2022-11-30T03:52:46.038Z,6.49
2022-11-30T03:53:48.302Z,6.41
2022-11-30T03:54:50.472Z,6.34
2022-11-30T03:55:58.093Z,6.28
2022-11-30T03:57:00.305Z,6.32
2022-11-30T03:58:02.505Z,6.41
2022-11-30T03:59:04.933Z,6.39
2022-11-30T04:00:07.829Z,6.37
2022-11-30T04:01:17.023Z,6.29
2022-11-30T04:02:19.354Z,6.39
2022-11-30T04:03:21.841Z,6.51
2022-11-30T04:04:24.103Z,6.46
2022-11-30T04:05:26.386Z,6.55
2022-11-30T04:06:28.600Z,6.54
2022-11-30T04:07:30.830Z,6.49
2022-11-30T04:08:33.894Z,6.38
2022-11-30T04:09:36.166Z,6.30
2022-11-30T04:10:38.352Z,6.27
2022-11-30T04:11:40.741Z,6.24
2022-11-30T04:12:42.972Z,6.21
2022-11-30T04:13:45.247Z,6.26
2022-11-30T04:14:47.662Z,6.41
2022-11-30T04:15:51.741Z,6.47
2022-11-30T04:16:54.025Z,6.28
2022-11-30T04:17:56.257Z,6.18
2022-11-30T04:18:58.544Z,6.22
2022-11-30T04:20:00.777Z,6.26
2022-11-30T04:21:03.198Z,6.23
2022-11-30T04:22:05.378Z,6.16
2022-11-30T04:23:08.746Z,6.11
2022-11-30T04:24:10.970Z,6.16
2022-11-30T04:25:13.189Z,6.28
2022-11-30T04:26:16.587Z,6.19
2022-11-30T04:27:18.932Z,6.12
2022-11-30T04:28:21.250Z,6.20
2022-11-30T04:29:23.667Z,6.24
2022-11-30T04:30:25.838Z,6.13
2022-11-30T04:31:28.092Z,6.13
2022-11-30T04:32:30.314Z,6.01
2022-11-30T04:33:32.684Z,6.00
2022-11-30T04:34:34.898Z,6.05
2022-11-30T04:35:49.976Z,6.16
2022-11-30T04:36:56.007Z,6.17
2022-11-30T04:38:01.165Z,6.15
2022-11-30T04:39:03.460Z,6.16
2022-11-30T04:40:06.720Z,6.07
2022-11-30T04:41:09.118Z,5.93
2022-11-30T04:42:11.254Z,5.90
2022-11-30T04:43:13.643Z,5.85
2022-11-30T04:44:15.794Z,5.79
2022-11-30T04:45:18.091Z,5.92
2022-11-30T04:46:20.432Z,5.95
2022-11-30T04:47:23.206Z,5.98
2022-11-30T04:48:25.489Z,5.88
2022-11-30T04:49:27.725Z,5.83
2022-11-30T04:50:30.099Z,5.86
2022-11-30T04:51:32.297Z,5.91
2022-11-30T04:52:34.735Z,5.87
2022-11-30T04:53:38.377Z,5.75
2022-11-30T04:54:40.549Z,5.74
2022-11-30T04:55:42.737Z,5.74
2022-11-30T04:56:45.044Z,5.72
2022-11-30T04:57:47.640Z,5.75
2022-11-30T04:58:49.832Z,5.75
2022-11-30T04:59:52.050Z,5.81
2022-11-30T05:00:55.460Z,5.85
2022-11-30T05:01:57.892Z,5.78
2022-11-30T05:03:00.141Z,5.77
2022-11-30T05:04:02.540Z,5.77
2022-11-30T05:05:05.183Z,5.77
2022-11-30T05:06:07.555Z,5.75
2022-11-30T05:07:09.765Z,5.79
2022-11-30T05:08:11.950Z,5.84
2022-11-30T05:09:14.196Z,5.81
2022-11-30T05:10:16.631Z,5.75
2022-11-30T05:11:18.945Z,5.78
2022-11-30T05:12:21.338Z,5.74
2022-11-30T05:13:25.015Z,5.76
2022-11-30T05:14:27.362Z,5.80
2022-11-30T05:15:29.555Z,5.81
2022-11-30T05:16:31.794Z,5.74
2022-11-30T05:17:34.500Z,5.68
2022-11-30T05:18:36.942Z,5.73
2022-11-30T05:19:39.169Z,5.87
2022-11-30T05:20:41.728Z,5.74
2022-11-30T05:21:45.939Z,5.77
2022-11-30T05:22:48.849Z,5.73
2022-11-30T05:23:52.233Z,5.82
2022-11-30T05:24:54.439Z,5.77
2022-11-30T05:25:56.853Z,5.71
2022-11-30T05:26:59.520Z,5.73
2022-11-30T05:28:01.679Z,5.71
2022-11-30T05:29:05.370Z,5.73
2022-11-30T05:30:08.071Z,5.72
2022-11-30T05:31:10.356Z,5.70
2022-11-30T05:32:12.747Z,5.68
2022-11-30T05:33:14.975Z,5.67
2022-11-30T05:34:17.165Z,5.64
2022-11-30T05:35:19.383Z,5.64
2022-11-30T05:36:21.625Z,5.69
2022-11-30T05:37:23.832Z,5.70
2022-11-30T05:38:26.159Z,5.69
2022-11-30T05:39:28.398Z,5.72
2022-11-30T05:40:32.471Z,5.76
2022-11-30T05:41:34.679Z,5.69
2022-11-30T05:42:36.902Z,5.70
2022-11-30T05:43:39.320Z,5.74
2022-11-30T05:44:41.468Z,5.71
2022-11-30T05:45:43.727Z,5.68
2022-11-30T05:46:45.932Z,5.68
2022-11-30T05:47:48.263Z,5.72
2022-11-30T05:48:50.549Z,5.74
2022-11-30T05:49:52.768Z,5.80
2022-11-30T05:50:55.319Z,5.78
2022-11-30T05:51:57.560Z,5.80
2022-11-30T05:53:00.959Z,5.66
2022-11-30T05:54:03.194Z,5.62
2022-11-30T05:55:05.843Z,5.68
2022-11-30T05:56:11.124Z,5.71
2022-11-30T05:57:13.318Z,5.64
2022-11-30T05:58:15.532Z,5.64
2022-11-30T05:59:17.790Z,5.63
2022-11-30T06:00:21.254Z,5.65
2022-11-30T06:01:28.654Z,5.63
2022-11-30T06:02:31.003Z,5.62
2022-11-30T06:03:35.019Z,5.60
2022-11-30T06:04:37.203Z,5.62
2022-11-30T06:05:39.522Z,5.60
2022-11-30T06:06:41.734Z,5.70
2022-11-30T06:07:44.027Z,5.75
2022-11-30T06:08:47.710Z,5.63
2022-11-30T06:09:49.913Z,5.70
2022-11-30T06:10:52.223Z,5.65
2022-11-30T06:11:54.479Z,5.65
2022-11-30T06:12:56.654Z,5.57
2022-11-30T06:13:58.855Z,5.71
2022-11-30T06:15:01.090Z,5.69
2022-11-30T06:16:04.530Z,5.68
2022-11-30T06:17:06.851Z,5.67
2022-11-30T06:18:12.313Z,5.65
2022-11-30T06:19:14.514Z,5.59
2022-11-30T06:20:16.760Z,5.59
2022-11-30T06:21:24.209Z,5.63
2022-11-30T06:22:26.997Z,5.64
2022-11-30T06:23:29.863Z,5.68
2022-11-30T06:24:32.087Z,5.67
2022-11-30T06:25:34.699Z,5.82
2022-11-30T06:26:36.930Z,5.84
2022-11-30T06:27:39.183Z,5.93
2022-11-30T06:28:46.618Z,5.82
2022-11-30T06:29:50.326Z,5.90
2022-11-30T06:30:52.485Z,5.87
2022-11-30T06:31:54.703Z,5.87
2022-11-30T06:32:56.930Z,5.90
2022-11-30T06:33:59.447Z,6.00
2022-11-30T06:35:01.715Z,6.04
2022-11-30T06:36:04.183Z,5.99
2022-11-30T06:37:06.407Z,6.00
2022-11-30T06:38:08.549Z,5.96
2022-11-30T06:39:12.484Z,6.06
2022-11-30T06:40:14.924Z,6.20
2022-11-30T06:41:17.199Z,6.33
2022-11-30T06:42:19.951Z,6.25
2022-11-30T06:43:22.266Z,6.31
2022-11-30T06:44:24.452Z,6.15
2022-11-30T06:45:26.715Z,6.18
2022-11-30T06:46:28.929Z,6.19
2022-11-30T06:47:31.251Z,6.36
2022-11-30T06:48:34.321Z,6.29
2022-11-30T06:49:36.587Z,6.14
2022-11-30T06:50:39.311Z,6.04
2022-11-30T06:51:42.469Z,5.94
2022-11-30T06:52:44.933Z,6.03
2022-11-30T06:53:47.241Z,5.96
2022-11-30T06:54:49.874Z,5.98
2022-11-30T06:55:52.539Z,6.11
2022-11-30T06:56:56.562Z,6.06
2022-11-30T06:58:06.357Z,6.15
2022-11-30T06:59:08.715Z,6.03
2022-11-30T07:00:12.544Z,6.04
2022-11-30T07:01:15.347Z,6.08
2022-11-30T07:02:18.751Z,5.99
2022-11-30T07:03:21.283Z,6.14
2022-11-30T07:04:23.568Z,6.17
2022-11-30T07:05:25.854Z,6.20
2022-11-30T07:06:28.027Z,6.23
2022-11-30T07:07:30.484Z,6.17
2022-11-30T07:08:32.733Z,6.14
2022-11-30T07:09:35.411Z,6.24
2022-11-30T07:10:42.279Z,6.24
2022-11-30T07:11:45.273Z,6.27
2022-11-30T07:12:47.428Z,6.26
2022-11-30T07:13:49.611Z,6.33
2022-11-30T07:14:53.532Z,6.31
2022-11-30T07:15:55.962Z,6.32
2022-11-30T07:16:58.184Z,6.29
2022-11-30T07:18:01.068Z,6.35
2022-11-30T07:19:03.325Z,6.51
2022-11-30T07:20:06.306Z,6.53
2022-11-30T07:21:10.924Z,6.62
2022-11-30T07:22:13.794Z,6.62
2022-11-30T07:23:35.006Z,6.58
2022-11-30T07:24:55.575Z,6.63
2022-11-30T07:26:07.434Z,6.71
2022-11-30T07:27:09.993Z,6.60
2022-11-30T07:28:12.233Z,6.58
2022-11-30T07:29:14.456Z,6.63
2022-11-30T07:30:16.881Z,6.67
2022-11-30T07:31:27.413Z,6.58
2022-11-30T07:32:54.862Z,6.44
2022-11-30T07:33:58.910Z,6.30
2022-11-30T07:35:01.118Z,6.45
2022-11-30T07:36:03.387Z,6.53
2022-11-30T07:38:31.886Z,6.56
2022-11-30T07:39:34.152Z,6.30
2022-11-30T07:42:03.059Z,6.65
2022-11-30T07:43:05.590Z,6.80
2022-11-30T07:44:08.917Z,6.77
2022-11-30T07:45:11.274Z,6.75
2022-11-30T07:46:15.319Z,6.54
2022-11-30T07:47:17.667Z,6.71
2022-11-30T07:48:20.672Z,6.68
2022-11-30T07:49:23.049Z,6.37
2022-11-30T07:50:26.465Z,6.27
